sensor_id;sensor_type;location;lat;lon;timestamp;P1;durP1;ratioP1;P2;durP2;ratioP2
45232;SDS011;30969;51.052;17.056;2023-02-02T00:03:22;9.63;;;2.63;;
45232;SDS011;30969;51.052;17.056;2023-02-02T00:08:26;6.18;;;2.35;;
45232;SDS011;30969;51.052;17.056;2023-02-02T00:13:30;13.98;;;3.40;;
45232;SDS011;30969;51.052;17.056;2023-02-02T00:18:34;10.63;;;2.70;;
45232;SDS011;30969;51.052;17.056;2023-02-02T00:23:38;7.57;;;2.20;;
45232;SDS011;30969;51.052;17.056;2023-02-02T00:28:43;9.30;;;2.13;;
45232;SDS011;30969;51.052;17.056;2023-02-02T00:33:46;5.35;;;1.63;;
45232;SDS011;30969;51.052;17.056;2023-02-02T00:38:51;10.48;;;2.40;;
45232;SDS011;30969;51.052;17.056;2023-02-02T00:43:56;7.22;;;2.13;;
45232;SDS011;30969;51.052;17.056;2023-02-02T00:49:17;10.57;;;2.47;;
45232;SDS011;30969;51.052;17.056;2023-02-02T00:54:23;9.05;;;2.10;;
45232;SDS011;30969;51.052;17.056;2023-02-02T00:59:29;8.55;;;3.42;;
45232;SDS011;30969;51.052;17.056;2023-02-02T01:04:33;7.78;;;2.20;;
45232;SDS011;30969;51.052;17.056;2023-02-02T01:09:36;12.27;;;2.40;;
45232;SDS011;30969;51.052;17.056;2023-02-02T01:14:41;7.53;;;2.15;;
45232;SDS011;30969;51.052;17.056;2023-02-02T01:19:44;8.27;;;2.83;;
45232;SDS011;30969;51.052;17.056;2023-02-02T01:24:48;10.95;;;2.10;;
45232;SDS011;30969;51.052;17.056;2023-02-02T01:29:53;17.10;;;3.05;;
45232;SDS011;30969;51.052;17.056;2023-02-02T01:34:56;9.18;;;2.90;;
45232;SDS011;30969;51.052;17.056;2023-02-02T01:40:00;16.30;;;2.25;;
45232;SDS011;30969;51.052;17.056;2023-02-02T01:45:19;14.38;;;4.10;;
45232;SDS011;30969;51.052;17.056;2023-02-02T01:50:27;8.75;;;1.98;;
45232;SDS011;30969;51.052;17.056;2023-02-02T01:55:33;7.35;;;2.20;;
45232;SDS011;30969;51.052;17.056;2023-02-02T02:00:40;8.20;;;2.13;;
45232;SDS011;30969;51.052;17.056;2023-02-02T02:05:49;7.82;;;1.55;;
45232;SDS011;30969;51.052;17.056;2023-02-02T02:10:56;6.97;;;1.90;;
45232;SDS011;30969;51.052;17.056;2023-02-02T02:16:03;6.07;;;1.40;;
45232;SDS011;30969;51.052;17.056;2023-02-02T02:21:24;9.10;;;1.57;;
45232;SDS011;30969;51.052;17.056;2023-02-02T02:26:57;11.55;;;2.03;;
45232;SDS011;30969;51.052;17.056;2023-02-02T02:32:30;5.13;;;1.73;;
45232;SDS011;30969;51.052;17.056;2023-02-02T02:37:44;6.25;;;1.40;;
45232;SDS011;30969;51.052;17.056;2023-02-02T02:42:51;10.07;;;2.25;;
45232;SDS011;30969;51.052;17.056;2023-02-02T02:47:59;8.68;;;1.63;;
45232;SDS011;30969;51.052;17.056;2023-02-02T02:53:05;8.00;;;3.15;;
45232;SDS011;30969;51.052;17.056;2023-02-02T02:58:11;7.88;;;1.77;;
45232;SDS011;30969;51.052;17.056;2023-02-02T03:03:22;6.93;;;2.05;;
45232;SDS011;30969;51.052;17.056;2023-02-02T03:08:36;9.05;;;2.97;;
45232;SDS011;30969;51.052;17.056;2023-02-02T03:13:43;10.77;;;2.15;;
45232;SDS011;30969;51.052;17.056;2023-02-02T03:18:48;6.97;;;1.90;;
45232;SDS011;30969;51.052;17.056;2023-02-02T03:23:51;6.50;;;2.00;;
45232;SDS011;30969;51.052;17.056;2023-02-02T03:28:55;7.72;;;2.47;;
45232;SDS011;30969;51.052;17.056;2023-02-02T03:34:00;5.40;;;1.75;;
45232;SDS011;30969;51.052;17.056;2023-02-02T03:39:04;12.15;;;2.20;;
45232;SDS011;30969;51.052;17.056;2023-02-02T03:44:09;12.63;;;2.63;;
45232;SDS011;30969;51.052;17.056;2023-02-02T03:49:14;8.45;;;1.55;;
45232;SDS011;30969;51.052;17.056;2023-02-02T03:54:18;6.28;;;1.52;;
45232;SDS011;30969;51.052;17.056;2023-02-02T03:59:21;5.63;;;1.83;;
45232;SDS011;30969;51.052;17.056;2023-02-02T04:04:29;12.45;;;2.22;;
45232;SDS011;30969;51.052;17.056;2023-02-02T04:09:32;9.75;;;1.52;;
45232;SDS011;30969;51.052;17.056;2023-02-02T04:14:36;7.80;;;2.35;;
45232;SDS011;30969;51.052;17.056;2023-02-02T04:19:40;6.70;;;1.40;;
45232;SDS011;30969;51.052;17.056;2023-02-02T04:24:44;10.13;;;1.90;;
45232;SDS011;30969;51.052;17.056;2023-02-02T04:29:48;10.43;;;3.15;;
45232;SDS011;30969;51.052;17.056;2023-02-02T04:34:52;6.97;;;1.30;;
45232;SDS011;30969;51.052;17.056;2023-02-02T04:39:56;7.40;;;2.58;;
45232;SDS011;30969;51.052;17.056;2023-02-02T04:44:59;3.95;;;2.00;;
45232;SDS011;30969;51.052;17.056;2023-02-02T04:50:05;12.00;;;1.52;;
45232;SDS011;30969;51.052;17.056;2023-02-02T04:55:10;11.27;;;1.90;;
45232;SDS011;30969;51.052;17.056;2023-02-02T05:00:14;12.18;;;2.10;;
45232;SDS011;30969;51.052;17.056;2023-02-02T05:05:19;5.88;;;1.60;;
45232;SDS011;30969;51.052;17.056;2023-02-02T05:10:23;6.35;;;1.42;;
45232;SDS011;30969;51.052;17.056;2023-02-02T05:15:26;10.48;;;2.13;;
45232;SDS011;30969;51.052;17.056;2023-02-02T05:20:31;8.10;;;1.98;;
45232;SDS011;30969;51.052;17.056;2023-02-02T05:25:34;8.18;;;1.60;;
45232;SDS011;30969;51.052;17.056;2023-02-02T05:30:39;12.35;;;2.35;;
45232;SDS011;30969;51.052;17.056;2023-02-02T05:35:44;10.82;;;1.70;;
45232;SDS011;30969;51.052;17.056;2023-02-02T05:40:49;7.03;;;1.60;;
45232;SDS011;30969;51.052;17.056;2023-02-02T05:45:52;5.97;;;1.60;;
45232;SDS011;30969;51.052;17.056;2023-02-02T05:50:59;4.03;;;1.60;;
45232;SDS011;30969;51.052;17.056;2023-02-02T05:56:05;9.50;;;1.85;;
45232;SDS011;30969;51.052;17.056;2023-02-02T06:01:09;8.82;;;2.25;;
45232;SDS011;30969;51.052;17.056;2023-02-02T06:06:14;5.68;;;1.63;;
45232;SDS011;30969;51.052;17.056;2023-02-02T06:11:18;9.25;;;1.70;;
45232;SDS011;30969;51.052;17.056;2023-02-02T06:16:21;4.88;;;1.95;;
45232;SDS011;30969;51.052;17.056;2023-02-02T06:21:26;7.35;;;2.22;;
45232;SDS011;30969;51.052;17.056;2023-02-02T06:26:31;15.48;;;2.50;;
45232;SDS011;30969;51.052;17.056;2023-02-02T06:31:35;7.68;;;2.47;;
45232;SDS011;30969;51.052;17.056;2023-02-02T06:36:41;7.45;;;2.60;;
45232;SDS011;30969;51.052;17.056;2023-02-02T06:41:44;10.07;;;1.98;;
45232;SDS011;30969;51.052;17.056;2023-02-02T06:46:49;6.88;;;2.58;;
45232;SDS011;30969;51.052;17.056;2023-02-02T06:51:53;6.85;;;1.88;;
45232;SDS011;30969;51.052;17.056;2023-02-02T06:56:57;11.70;;;3.10;;
45232;SDS011;30969;51.052;17.056;2023-02-02T07:02:00;6.80;;;2.10;;
45232;SDS011;30969;51.052;17.056;2023-02-02T07:07:05;6.43;;;2.10;;
45232;SDS011;30969;51.052;17.056;2023-02-02T07:12:08;9.77;;;1.73;;
45232;SDS011;30969;51.052;17.056;2023-02-02T07:17:12;7.32;;;1.88;;
45232;SDS011;30969;51.052;17.056;2023-02-02T07:22:17;3.00;;;1.90;;
45232;SDS011;30969;51.052;17.056;2023-02-02T07:27:20;7.78;;;2.15;;
45232;SDS011;30969;51.052;17.056;2023-02-02T07:32:24;5.10;;;1.83;;
45232;SDS011;30969;51.052;17.056;2023-02-02T07:37:29;10.35;;;2.42;;
45232;SDS011;30969;51.052;17.056;2023-02-02T07:42:32;4.82;;;1.77;;
45232;SDS011;30969;51.052;17.056;2023-02-02T07:47:36;6.85;;;2.08;;
45232;SDS011;30969;51.052;17.056;2023-02-02T07:52:41;5.72;;;2.05;;
45232;SDS011;30969;51.052;17.056;2023-02-02T07:57:44;6.43;;;1.83;;
45232;SDS011;30969;51.052;17.056;2023-02-02T08:02:48;9.30;;;3.92;;
45232;SDS011;30969;51.052;17.056;2023-02-02T08:07:53;6.85;;;1.55;;
45232;SDS011;30969;51.052;17.056;2023-02-02T08:12:56;5.93;;;1.70;;
45232;SDS011;30969;51.052;17.056;2023-02-02T08:18:00;6.97;;;2.33;;
45232;SDS011;30969;51.052;17.056;2023-02-02T08:23:04;5.25;;;1.83;;
45232;SDS011;30969;51.052;17.056;2023-02-02T08:28:14;5.20;;;1.95;;
45232;SDS011;30969;51.052;17.056;2023-02-02T08:33:17;5.30;;;1.23;;
45232;SDS011;30969;51.052;17.056;2023-02-02T08:38:23;2.85;;;1.08;;
45232;SDS011;30969;51.052;17.056;2023-02-02T08:43:27;5.25;;;1.40;;
45232;SDS011;30969;51.052;17.056;2023-02-02T08:48:32;3.35;;;1.40;;
45232;SDS011;30969;51.052;17.056;2023-02-02T08:53:37;2.70;;;0.88;;
45232;SDS011;30969;51.052;17.056;2023-02-02T08:58:43;5.25;;;1.48;;
45232;SDS011;30969;51.052;17.056;2023-02-02T09:03:47;2.33;;;0.90;;
45232;SDS011;30969;51.052;17.056;2023-02-02T09:08:52;4.15;;;0.98;;
45232;SDS011;30969;51.052;17.056;2023-02-02T09:13:56;9.27;;;2.80;;
45232;SDS011;30969;51.052;17.056;2023-02-02T09:19:02;7.93;;;1.02;;
45232;SDS011;30969;51.052;17.056;2023-02-02T09:24:08;6.88;;;1.20;;
45232;SDS011;30969;51.052;17.056;2023-02-02T09:29:14;2.88;;;1.10;;
45232;SDS011;30969;51.052;17.056;2023-02-02T09:34:19;5.63;;;1.20;;
45232;SDS011;30969;51.052;17.056;2023-02-02T09:39:24;5.85;;;1.27;;
45232;SDS011;30969;51.052;17.056;2023-02-02T09:44:41;5.63;;;1.00;;
45232;SDS011;30969;51.052;17.056;2023-02-02T09:49:57;4.25;;;1.13;;
45232;SDS011;30969;51.052;17.056;2023-02-02T09:55:09;2.58;;;0.90;;
45232;SDS011;30969;51.052;17.056;2023-02-02T10:00:22;2.37;;;0.67;;
45232;SDS011;30969;51.052;17.056;2023-02-02T10:05:31;1.38;;;0.60;;
45232;SDS011;30969;51.052;17.056;2023-02-02T10:10:46;3.47;;;1.10;;
45232;SDS011;30969;51.052;17.056;2023-02-02T10:15:54;2.28;;;0.80;;
45232;SDS011;30969;51.052;17.056;2023-02-02T10:21:05;7.85;;;1.40;;
45232;SDS011;30969;51.052;17.056;2023-02-02T10:26:18;5.72;;;1.25;;
45232;SDS011;30969;51.052;17.056;2023-02-02T10:31:30;7.18;;;1.50;;
45232;SDS011;30969;51.052;17.056;2023-02-02T10:36:46;3.65;;;1.70;;
45232;SDS011;30969;51.052;17.056;2023-02-02T10:42:05;5.32;;;1.33;;
45232;SDS011;30969;51.052;17.056;2023-02-02T10:47:19;8.52;;;1.65;;
45232;SDS011;30969;51.052;17.056;2023-02-02T10:52:29;1.63;;;0.90;;
45232;SDS011;30969;51.052;17.056;2023-02-02T10:57:44;3.53;;;1.35;;
45232;SDS011;30969;51.052;17.056;2023-02-02T11:02:55;4.45;;;1.13;;
45232;SDS011;30969;51.052;17.056;2023-02-02T11:08:00;2.13;;;0.73;;
45232;SDS011;30969;51.052;17.056;2023-02-02T11:13:06;4.25;;;0.98;;
45232;SDS011;30969;51.052;17.056;2023-02-02T11:18:12;3.05;;;0.90;;
45232;SDS011;30969;51.052;17.056;2023-02-02T11:23:28;4.90;;;1.38;;
45232;SDS011;30969;51.052;17.056;2023-02-02T11:28:34;2.67;;;1.38;;
45232;SDS011;30969;51.052;17.056;2023-02-02T11:33:39;7.30;;;2.47;;
45232;SDS011;30969;51.052;17.056;2023-02-02T11:38:42;3.28;;;1.10;;
45232;SDS011;30969;51.052;17.056;2023-02-02T11:43:48;5.50;;;1.30;;
45232;SDS011;30969;51.052;17.056;2023-02-02T11:48:56;5.20;;;1.30;;
45232;SDS011;30969;51.052;17.056;2023-02-02T11:54:04;7.07;;;1.60;;
45232;SDS011;30969;51.052;17.056;2023-02-02T11:59:25;6.07;;;1.58;;
45232;SDS011;30969;51.052;17.056;2023-02-02T12:04:33;6.15;;;1.13;;
45232;SDS011;30969;51.052;17.056;2023-02-02T12:09:37;5.25;;;2.03;;
45232;SDS011;30969;51.052;17.056;2023-02-02T12:14:43;10.60;;;1.50;;
45232;SDS011;30969;51.052;17.056;2023-02-02T12:19:59;3.53;;;1.30;;
45232;SDS011;30969;51.052;17.056;2023-02-02T12:30:45;3.85;;;1.10;;
45232;SDS011;30969;51.052;17.056;2023-02-02T12:36:00;4.63;;;1.20;;
45232;SDS011;30969;51.052;17.056;2023-02-02T12:41:19;4.35;;;1.77;;
45232;SDS011;30969;51.052;17.056;2023-02-02T12:46:41;5.28;;;1.98;;
45232;SDS011;30969;51.052;17.056;2023-02-02T12:51:54;7.37;;;1.77;;
45232;SDS011;30969;51.052;17.056;2023-02-02T12:57:16;8.63;;;1.65;;
45232;SDS011;30969;51.052;17.056;2023-02-02T13:02:27;8.55;;;2.00;;
45232;SDS011;30969;51.052;17.056;2023-02-02T13:07:37;7.80;;;1.63;;
45232;SDS011;30969;51.052;17.056;2023-02-02T13:12:46;7.93;;;1.80;;
45232;SDS011;30969;51.052;17.056;2023-02-02T13:17:56;4.55;;;2.03;;
45232;SDS011;30969;51.052;17.056;2023-02-02T13:23:04;6.03;;;1.52;;
45232;SDS011;30969;51.052;17.056;2023-02-02T13:28:16;7.50;;;2.13;;
45232;SDS011;30969;51.052;17.056;2023-02-02T13:33:29;6.43;;;2.05;;
45232;SDS011;30969;51.052;17.056;2023-02-02T13:38:36;7.38;;;2.00;;
45232;SDS011;30969;51.052;17.056;2023-02-02T13:43:45;6.18;;;1.52;;
45232;SDS011;30969;51.052;17.056;2023-02-02T13:48:58;6.05;;;2.05;;
45232;SDS011;30969;51.052;17.056;2023-02-02T13:54:19;5.57;;;1.85;;
45232;SDS011;30969;51.052;17.056;2023-02-02T13:59:50;6.80;;;2.22;;
45232;SDS011;30969;51.052;17.056;2023-02-02T14:05:02;9.43;;;1.98;;
45232;SDS011;30969;51.052;17.056;2023-02-02T14:10:19;7.70;;;1.50;;
45232;SDS011;30969;51.052;17.056;2023-02-02T14:15:35;5.05;;;1.40;;
45232;SDS011;30969;51.052;17.056;2023-02-02T14:20:43;6.60;;;2.28;;
45232;SDS011;30969;51.052;17.056;2023-02-02T14:25:51;3.97;;;1.50;;
45232;SDS011;30969;51.052;17.056;2023-02-02T14:31:25;5.70;;;1.60;;
45232;SDS011;30969;51.052;17.056;2023-02-02T14:36:52;5.78;;;1.88;;
45232;SDS011;30969;51.052;17.056;2023-02-02T14:42:17;6.10;;;2.85;;
45232;SDS011;30969;51.052;17.056;2023-02-02T14:47:49;5.10;;;1.63;;
45232;SDS011;30969;51.052;17.056;2023-02-02T14:53:00;9.45;;;2.15;;
45232;SDS011;30969;51.052;17.056;2023-02-02T14:58:07;6.57;;;2.00;;
45232;SDS011;30969;51.052;17.056;2023-02-02T15:08:39;9.23;;;2.22;;
45232;SDS011;30969;51.052;17.056;2023-02-02T15:13:42;8.48;;;1.67;;
45232;SDS011;30969;51.052;17.056;2023-02-02T15:18:54;6.70;;;2.10;;
45232;SDS011;30969;51.052;17.056;2023-02-02T15:24:03;7.88;;;2.85;;
45232;SDS011;30969;51.052;17.056;2023-02-02T15:29:18;5.05;;;2.58;;
45232;SDS011;30969;51.052;17.056;2023-02-02T15:34:33;3.88;;;1.48;;
45232;SDS011;30969;51.052;17.056;2023-02-02T15:39:44;5.32;;;1.77;;
45232;SDS011;30969;51.052;17.056;2023-02-02T15:44:49;6.75;;;1.58;;
45232;SDS011;30969;51.052;17.056;2023-02-02T15:49:53;3.83;;;1.67;;
45232;SDS011;30969;51.052;17.056;2023-02-02T15:54:59;8.82;;;2.17;;
45232;SDS011;30969;51.052;17.056;2023-02-02T16:00:21;4.40;;;1.73;;
45232;SDS011;30969;51.052;17.056;2023-02-02T16:10:48;8.30;;;2.03;;
45232;SDS011;30969;51.052;17.056;2023-02-02T16:15:55;6.68;;;1.90;;
45232;SDS011;30969;51.052;17.056;2023-02-02T16:21:01;3.75;;;1.75;;
45232;SDS011;30969;51.052;17.056;2023-02-02T16:26:11;5.47;;;1.90;;
45232;SDS011;30969;51.052;17.056;2023-02-02T16:31:17;4.85;;;1.58;;
45232;SDS011;30969;51.052;17.056;2023-02-02T16:36:21;6.35;;;2.15;;
45232;SDS011;30969;51.052;17.056;2023-02-02T16:41:29;4.13;;;2.03;;
45232;SDS011;30969;51.052;17.056;2023-02-02T16:46:39;5.72;;;1.80;;
45232;SDS011;30969;51.052;17.056;2023-02-02T16:51:45;5.00;;;2.60;;
45232;SDS011;30969;51.052;17.056;2023-02-02T16:56:58;2.45;;;1.63;;
45232;SDS011;30969;51.052;17.056;2023-02-02T17:02:03;3.53;;;2.13;;
45232;SDS011;30969;51.052;17.056;2023-02-02T17:07:21;4.68;;;1.90;;
45232;SDS011;30969;51.052;17.056;2023-02-02T17:12:27;10.55;;;2.70;;
45232;SDS011;30969;51.052;17.056;2023-02-02T17:17:35;3.42;;;2.03;;
45232;SDS011;30969;51.052;17.056;2023-02-02T17:22:40;4.40;;;1.80;;
45232;SDS011;30969;51.052;17.056;2023-02-02T17:27:46;5.43;;;1.52;;
45232;SDS011;30969;51.052;17.056;2023-02-02T17:32:50;3.65;;;1.73;;
45232;SDS011;30969;51.052;17.056;2023-02-02T17:37:55;6.00;;;2.47;;
45232;SDS011;30969;51.052;17.056;2023-02-02T17:43:00;2.65;;;1.45;;
45232;SDS011;30969;51.052;17.056;2023-02-02T17:48:04;4.03;;;1.70;;
45232;SDS011;30969;51.052;17.056;2023-02-02T17:53:09;7.38;;;2.25;;
45232;SDS011;30969;51.052;17.056;2023-02-02T17:58:15;6.32;;;2.65;;
45232;SDS011;30969;51.052;17.056;2023-02-02T18:03:21;4.55;;;2.00;;
45232;SDS011;30969;51.052;17.056;2023-02-02T18:08:28;4.93;;;2.30;;
45232;SDS011;30969;51.052;17.056;2023-02-02T18:13:33;6.07;;;3.33;;
45232;SDS011;30969;51.052;17.056;2023-02-02T18:18:37;3.67;;;2.20;;
45232;SDS011;30969;51.052;17.056;2023-02-02T18:23:41;3.95;;;2.30;;
45232;SDS011;30969;51.052;17.056;2023-02-02T18:28:46;7.05;;;3.15;;
45232;SDS011;30969;51.052;17.056;2023-02-02T18:33:51;6.15;;;3.53;;
45232;SDS011;30969;51.052;17.056;2023-02-02T18:38:55;5.65;;;3.13;;
45232;SDS011;30969;51.052;17.056;2023-02-02T18:44:00;6.18;;;2.83;;
45232;SDS011;30969;51.052;17.056;2023-02-02T18:49:04;6.70;;;3.13;;
45232;SDS011;30969;51.052;17.056;2023-02-02T18:54:09;4.95;;;2.53;;
45232;SDS011;30969;51.052;17.056;2023-02-02T18:59:15;4.53;;;3.33;;
45232;SDS011;30969;51.052;17.056;2023-02-02T19:04:19;3.75;;;1.50;;
45232;SDS011;30969;51.052;17.056;2023-02-02T19:09:22;2.13;;;1.15;;
45232;SDS011;30969;51.052;17.056;2023-02-02T19:14:30;2.80;;;1.48;;
45232;SDS011;30969;51.052;17.056;2023-02-02T19:19:38;4.78;;;1.98;;
45232;SDS011;30969;51.052;17.056;2023-02-02T19:24:43;4.15;;;2.03;;
45232;SDS011;30969;51.052;17.056;2023-02-02T19:29:49;4.45;;;1.95;;
45232;SDS011;30969;51.052;17.056;2023-02-02T19:34:57;4.05;;;1.90;;
45232;SDS011;30969;51.052;17.056;2023-02-02T19:40:12;5.22;;;1.98;;
45232;SDS011;30969;51.052;17.056;2023-02-02T19:45:21;4.53;;;2.70;;
45232;SDS011;30969;51.052;17.056;2023-02-02T19:50:29;5.80;;;2.80;;
45232;SDS011;30969;51.052;17.056;2023-02-02T19:55:40;8.02;;;3.05;;
45232;SDS011;30969;51.052;17.056;2023-02-02T20:00:47;5.10;;;2.60;;
45232;SDS011;30969;51.052;17.056;2023-02-02T20:05:52;6.55;;;2.70;;
45232;SDS011;30969;51.052;17.056;2023-02-02T20:10:58;7.28;;;2.85;;
45232;SDS011;30969;51.052;17.056;2023-02-02T20:16:09;7.10;;;3.40;;
45232;SDS011;30969;51.052;17.056;2023-02-02T20:21:18;7.38;;;3.17;;
45232;SDS011;30969;51.052;17.056;2023-02-02T20:26:32;8.73;;;3.55;;
45232;SDS011;30969;51.052;17.056;2023-02-02T20:31:40;9.75;;;4.28;;
45232;SDS011;30969;51.052;17.056;2023-02-02T20:36:44;9.32;;;4.97;;
45232;SDS011;30969;51.052;17.056;2023-02-02T20:41:48;12.27;;;4.65;;
45232;SDS011;30969;51.052;17.056;2023-02-02T20:46:54;9.57;;;4.22;;
45232;SDS011;30969;51.052;17.056;2023-02-02T20:51:58;8.07;;;4.15;;
45232;SDS011;30969;51.052;17.056;2023-02-02T20:57:04;8.45;;;4.30;;
45232;SDS011;30969;51.052;17.056;2023-02-02T21:02:09;10.40;;;4.40;;
45232;SDS011;30969;51.052;17.056;2023-02-02T21:07:20;8.95;;;4.15;;
45232;SDS011;30969;51.052;17.056;2023-02-02T21:12:24;9.98;;;4.40;;
45232;SDS011;30969;51.052;17.056;2023-02-02T21:17:29;9.20;;;4.80;;
45232;SDS011;30969;51.052;17.056;2023-02-02T21:22:33;11.43;;;4.60;;
45232;SDS011;30969;51.052;17.056;2023-02-02T21:27:37;13.00;;;5.00;;
45232;SDS011;30969;51.052;17.056;2023-02-02T21:32:43;10.82;;;5.03;;
45232;SDS011;30969;51.052;17.056;2023-02-02T21:37:46;11.85;;;4.80;;
45232;SDS011;30969;51.052;17.056;2023-02-02T21:42:57;9.38;;;4.55;;
45232;SDS011;30969;51.052;17.056;2023-02-02T21:48:04;10.82;;;4.85;;
45232;SDS011;30969;51.052;17.056;2023-02-02T21:53:13;11.95;;;4.85;;
45232;SDS011;30969;51.052;17.056;2023-02-02T21:58:22;15.97;;;6.13;;
45232;SDS011;30969;51.052;17.056;2023-02-02T22:03:30;14.23;;;5.45;;
45232;SDS011;30969;51.052;17.056;2023-02-02T22:08:35;11.65;;;5.38;;
45232;SDS011;30969;51.052;17.056;2023-02-02T22:13:39;10.18;;;5.93;;
45232;SDS011;30969;51.052;17.056;2023-02-02T22:18:43;16.52;;;6.88;;
45232;SDS011;30969;51.052;17.056;2023-02-02T22:23:47;16.42;;;6.20;;
45232;SDS011;30969;51.052;17.056;2023-02-02T22:28:50;11.13;;;5.55;;
45232;SDS011;30969;51.052;17.056;2023-02-02T22:33:57;15.30;;;6.55;;
45232;SDS011;30969;51.052;17.056;2023-02-02T22:39:01;11.57;;;5.22;;
45232;SDS011;30969;51.052;17.056;2023-02-02T22:44:04;9.80;;;4.63;;
45232;SDS011;30969;51.052;17.056;2023-02-02T22:49:09;8.57;;;4.20;;
45232;SDS011;30969;51.052;17.056;2023-02-02T22:54:13;11.88;;;4.78;;
45232;SDS011;30969;51.052;17.056;2023-02-02T22:59:17;9.85;;;5.47;;
45232;SDS011;30969;51.052;17.056;2023-02-02T23:04:22;10.95;;;6.25;;
45232;SDS011;30969;51.052;17.056;2023-02-02T23:09:25;15.40;;;5.70;;
45232;SDS011;30969;51.052;17.056;2023-02-02T23:14:29;12.20;;;6.05;;
45232;SDS011;30969;51.052;17.056;2023-02-02T23:19:36;15.23;;;5.70;;
45232;SDS011;30969;51.052;17.056;2023-02-02T23:24:39;15.93;;;6.03;;
45232;SDS011;30969;51.052;17.056;2023-02-02T23:29:43;11.75;;;5.72;;
45232;SDS011;30969;51.052;17.056;2023-02-02T23:34:48;13.77;;;6.25;;
45232;SDS011;30969;51.052;17.056;2023-02-02T23:39:51;16.27;;;6.93;;
45232;SDS011;30969;51.052;17.056;2023-02-02T23:44:55;16.30;;;6.45;;
45232;SDS011;30969;51.052;17.056;2023-02-02T23:49:59;16.30;;;6.22;;
45232;SDS011;30969;51.052;17.056;2023-02-02T23:55:05;11.65;;;6.28;;
